Terminal Aerodrome Forecast
Issued by NWS

Home | Current Version | Previous Version | Text Only | Print | Product List | Glossary On
Versions: 1 2 3 4 5 6 7 8 9 10 11 12 13
000
FTUS43 KMPX 301723
TAFRNH
TAF
KRNH 301723Z 3018/0118 06012G20KT P6SM -DZ SCT030 OVC045
     FM302000 05014G24KT P6SM -SHRA SCT020 BKN035 OVC050
      TEMPO 3020/3024 BKN025
     FM010000 05014G24KT P6SM -SHRA SCT008 OVC020
     FM010500 05013G21KT 6SM -SHRA BR OVC008
     FM010900 04010KT 4SM -RA BR OVC008
     FM011700 36008KT 2SM -RA BR OVC008=

USA.gov is the U.S. government's official web portal to all federal, state and local government web resources and services.